createdAt,value
2018-11-06T00:02:07.838Z,20.08
2018-11-06T00:05:40.802Z,20.77
2018-11-06T00:08:09.705Z,17.82
2018-11-06T00:10:38.582Z,18.55
2018-11-06T00:13:07.459Z,18.95
2018-11-06T00:15:36.384Z,15.85
2018-11-06T00:18:05.842Z,19.07
2018-11-06T00:20:34.850Z,18.23
2018-11-06T00:23:03.814Z,19.42
2018-11-06T00:25:32.806Z,20.30
2018-11-06T00:28:01.699Z,23.70
2018-11-06T00:30:30.706Z,15.18
2018-11-06T00:32:59.591Z,15.88
2018-11-06T00:35:28.541Z,19.92
2018-11-06T00:37:57.466Z,15.58
2018-11-06T00:40:26.387Z,17.75
2018-11-06T00:42:55.278Z,22.77
2018-11-06T00:45:24.263Z,21.10
2018-11-06T00:47:53.310Z,16.70
2018-11-06T00:50:22.470Z,18.20
2018-11-06T00:52:51.493Z,18.57
2018-11-06T00:55:20.545Z,23.00
2018-11-06T00:57:49.789Z,17.27
2018-11-06T01:00:19.496Z,18.05
2018-11-06T01:02:48.800Z,19.60
2018-11-06T01:05:18.973Z,20.20
2018-11-06T01:07:48.850Z,15.80
2018-11-06T01:10:17.762Z,17.67
2018-11-06T01:12:46.726Z,17.10
2018-11-06T01:15:16.510Z,16.48
2018-11-06T01:17:46.210Z,15.15
2018-11-06T01:20:16.685Z,18.80
2018-11-06T01:22:45.767Z,16.50
2018-11-06T01:25:15.078Z,16.02
2018-11-06T01:27:44.049Z,21.02
2018-11-06T01:30:17.279Z,18.27
2018-11-06T01:32:46.509Z,17.52
2018-11-06T01:35:15.937Z,18.20
2018-11-06T01:37:45.429Z,15.75
2018-11-06T01:40:16.889Z,15.58
2018-11-06T01:42:46.206Z,15.85
2018-11-06T01:45:16.384Z,23.12
2018-11-06T01:47:45.312Z,15.72
2018-11-06T01:50:16.423Z,19.20
2018-11-06T01:52:46.335Z,17.42
2018-11-06T01:55:15.260Z,15.25
2018-11-06T01:57:44.297Z,18.80
2018-11-06T02:00:18.381Z,18.95
2018-11-06T02:02:47.477Z,17.42
2018-11-06T02:05:17.423Z,15.78
2018-11-06T02:07:47.741Z,17.75
2018-11-06T02:10:17.058Z,18.30
2018-11-06T02:12:46.674Z,18.12
2018-11-06T02:15:15.626Z,21.20
2018-11-06T02:17:45.193Z,14.10
2018-11-06T02:20:14.942Z,19.87
2018-11-06T02:22:44.506Z,16.85
2018-11-06T02:25:13.870Z,18.23
2018-11-06T02:27:42.862Z,16.62
2018-11-06T02:30:13.658Z,14.85
2018-11-06T02:32:43.454Z,15.38
2018-11-06T02:35:12.388Z,16.60
2018-11-06T02:37:41.355Z,17.05
2018-11-06T02:40:12.633Z,16.82
2018-11-06T02:42:42.019Z,16.52
2018-11-06T02:45:11.764Z,17.35
2018-11-06T02:47:41.373Z,15.53
2018-11-06T02:50:11.306Z,15.98
2018-11-06T02:52:40.394Z,17.35
2018-11-06T02:55:09.943Z,20.57
2018-11-06T02:57:39.030Z,16.32
2018-11-06T03:00:10.217Z,18.75
2018-11-06T03:02:39.097Z,17.80
2018-11-06T03:05:08.751Z,19.92
2018-11-06T03:07:37.685Z,17.45
2018-11-06T03:10:07.491Z,14.70
2018-11-06T03:12:36.418Z,15.95
2018-11-06T03:15:06.286Z,14.13
2018-11-06T03:17:35.174Z,16.87
2018-11-06T03:20:04.078Z,15.20
2018-11-06T03:22:33.217Z,20.35
2018-11-06T03:25:02.110Z,22.25
2018-11-06T03:27:31.102Z,15.88
2018-11-06T03:30:00.125Z,21.20
2018-11-06T03:32:29.115Z,16.73
2018-11-06T03:34:58.258Z,21.12
2018-11-06T03:37:27.192Z,20.45
2018-11-06T03:39:56.111Z,18.98
2018-11-06T03:42:25.035Z,18.85
2018-11-06T03:44:53.954Z,15.78
2018-11-06T03:47:22.889Z,17.25
2018-11-06T03:49:51.849Z,17.70
2018-11-06T03:52:20.843Z,15.48
2018-11-06T03:54:49.713Z,18.35
2018-11-06T03:57:18.601Z,16.45
2018-11-06T03:59:47.483Z,19.73
2018-11-06T04:02:16.368Z,17.40
2018-11-06T04:04:45.267Z,16.23
2018-11-06T04:07:14.177Z,21.95
2018-11-06T04:09:43.054Z,16.07
2018-11-06T04:12:11.951Z,19.10
2018-11-06T04:14:40.838Z,16.75
2018-11-06T04:17:09.738Z,19.05
2018-11-06T04:19:38.659Z,17.85
2018-11-06T04:22:07.567Z,14.00
2018-11-06T04:24:36.662Z,16.77
2018-11-06T04:27:05.865Z,20.00
2018-11-06T04:29:35.991Z,18.37
2018-11-06T04:32:05.062Z,16.57
2018-11-06T04:34:33.993Z,16.75
2018-11-06T04:37:02.870Z,16.40
2018-11-06T04:39:31.747Z,16.67
2018-11-06T04:42:01.187Z,19.10
2018-11-06T04:44:30.163Z,15.20
2018-11-06T04:46:59.228Z,16.52
2018-11-06T04:49:28.158Z,18.20
2018-11-06T04:51:57.255Z,17.80
2018-11-06T04:54:26.202Z,19.60
2018-11-06T04:56:55.210Z,20.30
2018-11-06T04:59:24.218Z,16.95
2018-11-06T05:01:53.312Z,18.50
2018-11-06T05:04:22.404Z,18.42
2018-11-06T05:06:51.473Z,16.85
2018-11-06T05:09:20.291Z,18.95
2018-11-06T05:11:49.199Z,15.78
2018-11-06T05:14:18.144Z,15.20
2018-11-06T05:16:47.089Z,15.25
2018-11-06T05:19:16.042Z,19.90
2018-11-06T05:21:44.954Z,18.37
2018-11-06T05:24:13.889Z,17.30
2018-11-06T05:26:42.804Z,17.02
2018-11-06T05:29:11.703Z,17.65
2018-11-06T05:31:40.621Z,14.47
2018-11-06T05:34:09.507Z,19.07
2018-11-06T05:36:38.444Z,15.53
2018-11-06T05:39:09.725Z,21.25
2018-11-06T05:41:38.534Z,16.05
2018-11-06T05:44:07.477Z,18.85
2018-11-06T05:46:36.387Z,16.97
2018-11-06T05:49:05.516Z,16.23
2018-11-06T05:51:34.500Z,22.75
2018-11-06T05:54:03.401Z,14.95
2018-11-06T05:56:33.003Z,18.55
2018-11-06T05:59:01.870Z,20.65
2018-11-06T06:01:30.773Z,19.57
2018-11-06T06:03:59.642Z,15.53
2018-11-06T06:06:28.553Z,16.85
2018-11-06T06:08:57.663Z,17.77
2018-11-06T06:11:26.666Z,21.35
2018-11-06T06:13:55.619Z,16.85
2018-11-06T06:16:24.567Z,16.87
2018-11-06T06:18:53.553Z,16.60
2018-11-06T06:21:22.995Z,17.42
2018-11-06T06:23:51.945Z,17.57
2018-11-06T06:26:21.242Z,16.45
2018-11-06T06:28:50.418Z,18.95
2018-11-06T06:31:19.487Z,23.75
2018-11-06T06:33:48.818Z,17.50
2018-11-06T06:36:17.791Z,16.93
2018-11-06T06:38:46.813Z,17.87
2018-11-06T06:41:15.637Z,18.60
2018-11-06T06:43:44.715Z,17.60
2018-11-06T06:46:14.051Z,17.27
2018-11-06T06:48:42.935Z,21.35
2018-11-06T06:51:11.826Z,17.10
2018-11-06T06:53:40.739Z,19.42
2018-11-06T06:56:09.650Z,19.98
2018-11-06T06:58:39.634Z,19.15
2018-11-06T07:01:09.767Z,19.75
2018-11-06T07:03:38.655Z,25.35
2018-11-06T07:06:07.537Z,20.05
2018-11-06T07:08:36.447Z,23.65
2018-11-06T07:11:05.447Z,21.93
2018-11-06T07:13:34.442Z,23.85
2018-11-06T07:16:03.335Z,16.65
2018-11-06T07:18:32.282Z,25.55
2018-11-06T07:21:01.226Z,21.07
2018-11-06T07:23:30.230Z,17.80
2018-11-06T07:25:59.179Z,21.12
2018-11-06T07:28:28.106Z,19.50
2018-11-06T07:30:57.135Z,17.40
2018-11-06T07:33:26.102Z,16.65
2018-11-06T07:35:55.113Z,20.10
2018-11-06T07:38:23.984Z,23.50
2018-11-06T07:40:53.126Z,17.15
2018-11-06T07:43:22.050Z,19.85
2018-11-06T07:45:50.954Z,18.17
2018-11-06T07:48:19.904Z,19.65
2018-11-06T07:50:48.772Z,17.55
2018-11-06T07:53:17.721Z,18.10
2018-11-06T07:55:46.633Z,19.62
2018-11-06T07:58:15.619Z,13.25
2018-11-06T08:00:45.050Z,20.05
2018-11-06T08:03:14.137Z,20.95
2018-11-06T08:05:43.018Z,17.00
2018-11-06T08:08:12.131Z,20.40
2018-11-06T08:10:41.127Z,15.93
2018-11-06T08:13:10.174Z,12.73
2018-11-06T08:15:39.090Z,16.67
2018-11-06T08:18:08.085Z,24.12
2018-11-06T08:20:37.015Z,18.17
2018-11-06T08:23:05.902Z,23.05
2018-11-06T08:25:34.805Z,19.00
2018-11-06T08:28:03.694Z,12.73
2018-11-06T08:30:32.672Z,17.32
2018-11-06T08:33:01.600Z,14.93
2018-11-06T08:35:30.498Z,15.80
2018-11-06T08:38:00.479Z,18.12
2018-11-06T08:40:29.603Z,18.73
2018-11-06T08:42:58.541Z,15.68
2018-11-06T08:45:28.120Z,19.75
2018-11-06T08:47:57.350Z,20.12
2018-11-06T08:50:26.415Z,20.00
2018-11-06T08:52:55.982Z,17.90
2018-11-06T08:55:24.922Z,14.60
2018-11-06T08:57:53.930Z,9.48
2018-11-06T09:00:24.433Z,12.53
2018-11-06T09:02:53.391Z,10.72
2018-11-06T09:05:22.378Z,7.35
2018-11-06T09:07:51.757Z,8.68
2018-11-06T09:10:20.708Z,9.63
2018-11-06T09:12:49.906Z,10.05
2018-11-06T09:15:18.794Z,10.00
2018-11-06T09:17:47.684Z,8.60
2018-11-06T09:20:17.391Z,7.75
2018-11-06T09:22:46.312Z,6.53
2018-11-06T09:25:16.814Z,8.28
2018-11-06T09:27:45.839Z,12.30
2018-11-06T09:30:16.062Z,7.42
2018-11-06T09:32:45.155Z,7.10
2018-11-06T09:35:14.652Z,8.78
2018-11-06T09:37:44.010Z,7.45
2018-11-06T09:40:14.530Z,8.45
2018-11-06T09:42:43.430Z,8.35
2018-11-06T09:45:13.116Z,5.50
2018-11-06T09:47:41.994Z,5.42
2018-11-06T09:50:19.148Z,7.60
2018-11-06T09:52:48.497Z,7.67
2018-11-06T09:55:18.098Z,8.90
2018-11-06T09:57:47.536Z,8.13
2018-11-06T10:00:17.728Z,9.88
2018-11-06T10:02:46.747Z,5.70
2018-11-06T10:05:16.070Z,5.62
2018-11-06T10:07:45.092Z,6.15
2018-11-06T10:10:15.732Z,4.72
2018-11-06T10:12:44.957Z,5.92
2018-11-06T10:15:16.401Z,5.33
2018-11-06T10:17:46.686Z,7.35
2018-11-06T10:20:16.827Z,7.53
2018-11-06T10:22:45.834Z,6.78
2018-11-06T10:25:14.746Z,8.08
2018-11-06T10:27:43.683Z,4.65
2018-11-06T10:30:14.971Z,5.58
2018-11-06T10:32:43.958Z,7.62
2018-11-06T10:35:13.054Z,5.83
2018-11-06T10:37:41.962Z,7.67
2018-11-06T10:40:15.269Z,4.97
2018-11-06T10:42:44.804Z,4.37
2018-11-06T10:45:13.859Z,7.47
2018-11-06T10:47:42.809Z,10.05
2018-11-06T10:50:12.840Z,5.50
2018-11-06T10:52:42.054Z,7.05
2018-11-06T10:55:11.387Z,5.37
2018-11-06T10:57:40.888Z,6.97
2018-11-06T11:00:17.121Z,6.05
2018-11-06T11:02:51.378Z,8.90
2018-11-06T11:05:21.853Z,8.50
2018-11-06T11:07:50.798Z,3.90
2018-11-06T11:10:19.713Z,5.25
2018-11-06T11:12:48.665Z,5.92
2018-11-06T11:15:17.566Z,5.47
2018-11-06T11:17:46.438Z,5.10
2018-11-06T11:20:15.590Z,5.65
2018-11-06T11:22:44.709Z,4.30
2018-11-06T11:25:15.030Z,4.42
2018-11-06T11:27:44.818Z,4.30
2018-11-06T11:30:15.092Z,3.53
2018-11-06T11:32:48.065Z,3.70
2018-11-06T11:35:17.334Z,3.75
2018-11-06T11:37:46.765Z,3.95
2018-11-06T11:40:16.413Z,4.22
2018-11-06T11:42:45.414Z,4.77
2018-11-06T11:45:15.266Z,4.07
2018-11-06T11:47:44.146Z,3.77
2018-11-06T11:50:14.338Z,4.37
2018-11-06T11:52:43.336Z,7.30
2018-11-06T11:55:12.410Z,4.30
2018-11-06T11:57:41.606Z,5.55
2018-11-06T12:00:15.044Z,4.07
2018-11-06T12:02:43.913Z,3.63
2018-11-06T12:05:12.837Z,3.90
2018-11-06T12:07:41.916Z,3.80
2018-11-06T12:10:11.999Z,8.13
2018-11-06T12:12:41.667Z,4.15
2018-11-06T12:15:13.387Z,4.93
2018-11-06T12:17:43.014Z,4.80
2018-11-06T12:20:12.875Z,5.17
2018-11-06T12:22:41.957Z,5.50
2018-11-06T12:25:11.530Z,6.10
2018-11-06T12:27:40.651Z,3.70
2018-11-06T12:30:11.745Z,4.10
2018-11-06T12:32:40.984Z,4.85
2018-11-06T12:35:10.955Z,6.45
2018-11-06T12:37:40.138Z,3.92
2018-11-06T12:40:12.034Z,3.80
2018-11-06T12:42:41.556Z,5.60
2018-11-06T12:45:12.002Z,11.08
2018-11-06T12:47:41.082Z,14.73
2018-11-06T12:50:10.370Z,4.50
2018-11-06T12:52:39.734Z,8.10
2018-11-06T12:55:10.062Z,3.52
2018-11-06T12:57:39.165Z,4.43
2018-11-06T13:00:11.958Z,5.60
2018-11-06T13:02:40.833Z,3.87
2018-11-06T13:05:10.189Z,3.43
2018-11-06T13:07:40.411Z,3.90
2018-11-06T13:10:10.034Z,3.63
2018-11-06T13:12:39.563Z,3.00
2018-11-06T13:15:08.774Z,4.10
2018-11-06T13:17:38.180Z,11.77
2018-11-06T13:20:09.966Z,8.40
2018-11-06T13:22:39.739Z,3.83
2018-11-06T13:25:08.650Z,3.30
2018-11-06T13:27:38.412Z,4.00
2018-11-06T13:30:09.919Z,4.00
2018-11-06T13:32:39.402Z,5.20
2018-11-06T13:35:08.806Z,3.70
2018-11-06T13:37:37.813Z,5.60
2018-11-06T13:40:08.974Z,3.33
2018-11-06T13:42:38.187Z,5.30
2018-11-06T13:45:09.212Z,6.90
2018-11-06T13:47:38.043Z,6.90
2018-11-06T13:50:07.515Z,9.40
2018-11-06T13:52:36.653Z,8.97
2018-11-06T13:55:06.818Z,10.37
2018-11-06T13:57:35.718Z,10.97
2018-11-06T14:00:08.451Z,7.13
2018-11-06T14:02:37.385Z,13.88
2018-11-06T14:05:06.346Z,17.80
2018-11-06T14:07:35.503Z,5.80
2018-11-06T14:10:04.750Z,8.93
2018-11-06T14:12:33.686Z,5.62
2018-11-06T14:15:02.625Z,9.48
2018-11-06T14:17:31.526Z,15.17
2018-11-06T14:20:01.770Z,17.15
2018-11-06T14:22:30.849Z,7.22
2018-11-06T14:24:59.814Z,7.55
2018-11-06T14:27:28.832Z,6.63
2018-11-06T14:29:57.727Z,9.28
2018-11-06T14:32:26.624Z,5.58
2018-11-06T14:34:56.272Z,5.93
2018-11-06T14:37:25.583Z,9.80
2018-11-06T14:39:54.488Z,8.90
2018-11-06T14:42:24.407Z,5.65
2018-11-06T14:44:54.960Z,4.70
2018-11-06T14:47:23.915Z,5.67
2018-11-06T14:49:52.960Z,5.43
2018-11-06T14:52:21.908Z,5.85
2018-11-06T14:54:50.920Z,7.37
2018-11-06T14:57:19.814Z,6.50
2018-11-06T14:59:48.719Z,7.45
2018-11-06T15:02:18.127Z,6.20
2018-11-06T15:04:47.470Z,15.35
2018-11-06T15:07:18.522Z,6.28
2018-11-06T15:09:47.846Z,5.90
2018-11-06T15:12:17.792Z,5.12
2018-11-06T15:14:46.869Z,7.10
2018-11-06T15:17:19.843Z,6.87
2018-11-06T15:19:48.858Z,9.03
2018-11-06T15:22:17.759Z,7.67
2018-11-06T15:24:46.746Z,9.45
2018-11-06T15:27:15.763Z,13.23
2018-11-06T15:29:45.288Z,6.62
2018-11-06T15:32:14.538Z,7.33
2018-11-06T15:34:43.358Z,8.90
2018-11-06T15:37:12.506Z,9.78
2018-11-06T15:39:41.397Z,8.88
2018-11-06T15:42:10.318Z,12.05
2018-11-06T15:44:39.353Z,8.53
2018-11-06T15:47:08.270Z,8.28
2018-11-06T15:49:37.191Z,8.93
2018-11-06T15:52:06.148Z,9.75
2018-11-06T15:54:35.112Z,11.93
2018-11-06T15:57:03.974Z,6.90
2018-11-06T15:59:34.735Z,12.47
2018-11-06T16:02:04.774Z,16.73
2018-11-06T16:04:33.703Z,11.40
2018-11-06T16:07:03.358Z,13.62
2018-11-06T16:09:32.273Z,14.05
2018-11-06T16:12:01.233Z,11.50
2018-11-06T16:14:30.135Z,10.90
2018-11-06T16:16:59.047Z,11.33
2018-11-06T16:19:28.051Z,9.95
2018-11-06T16:21:57.034Z,11.10
2018-11-06T16:24:26.048Z,13.40
2018-11-06T16:26:54.994Z,9.58
2018-11-06T16:29:23.942Z,12.37
2018-11-06T16:31:53.374Z,11.00
2018-11-06T16:34:22.511Z,10.55
2018-11-06T16:36:52.052Z,15.48
2018-11-06T16:39:21.068Z,10.85
2018-11-06T16:41:50.040Z,11.75
2018-11-06T16:44:18.940Z,10.35
2018-11-06T16:46:47.875Z,15.65
2018-11-06T16:49:17.090Z,14.43
2018-11-06T16:51:46.048Z,14.07
2018-11-06T16:54:14.950Z,18.00
2018-11-06T16:56:43.870Z,15.68
2018-11-06T16:59:12.962Z,23.70
2018-11-06T17:01:42.108Z,16.60
2018-11-06T17:04:11.082Z,21.45
2018-11-06T17:06:47.165Z,14.78
2018-11-06T17:09:22.556Z,20.92
2018-11-06T17:11:52.690Z,22.67
2018-11-06T17:14:24.553Z,15.23
2018-11-06T17:16:56.800Z,16.23
2018-11-06T17:19:26.785Z,20.43
2018-11-06T17:21:55.925Z,13.05
2018-11-06T17:24:25.575Z,15.88
2018-11-06T17:26:55.121Z,13.38
2018-11-06T17:29:26.266Z,16.40
2018-11-06T17:32:00.694Z,18.15
2018-11-06T17:34:32.074Z,14.78
2018-11-06T17:37:01.067Z,12.15
2018-11-06T17:39:30.145Z,13.80
2018-11-06T17:42:00.513Z,14.85
2018-11-06T17:44:30.385Z,13.58
2018-11-06T17:46:59.599Z,18.55
2018-11-06T17:49:28.693Z,17.60
2018-11-06T17:51:57.755Z,18.00
2018-11-06T17:54:27.110Z,15.85
2018-11-06T17:56:56.967Z,19.75
2018-11-06T17:59:26.034Z,19.45
2018-11-06T18:01:55.257Z,17.57
2018-11-06T18:04:24.493Z,17.40
2018-11-06T18:06:53.609Z,17.30
2018-11-06T18:09:23.982Z,21.85
2018-11-06T18:11:56.737Z,16.52
2018-11-06T18:14:26.207Z,17.85
2018-11-06T18:16:57.486Z,15.00
2018-11-06T18:19:27.115Z,17.50
2018-11-06T18:21:57.598Z,17.12
2018-11-06T18:24:27.343Z,15.35
2018-11-06T18:26:56.952Z,19.50
2018-11-06T18:29:26.534Z,18.55
2018-11-06T18:31:55.713Z,14.98
2018-11-06T18:34:25.057Z,16.25
2018-11-06T18:36:59.317Z,16.80
2018-11-06T18:39:29.275Z,16.70
2018-11-06T18:41:58.736Z,18.30
2018-11-06T18:44:28.280Z,17.75
2018-11-06T18:46:59.356Z,19.42
2018-11-06T18:49:31.560Z,20.72
2018-11-06T18:52:00.638Z,15.30
2018-11-06T18:54:29.600Z,19.00
2018-11-06T18:56:58.628Z,15.35
2018-11-06T18:59:30.384Z,18.48
2018-11-06T19:01:59.375Z,15.65
2018-11-06T19:04:28.545Z,17.77
2018-11-06T19:06:57.811Z,15.72
2018-11-06T19:09:27.238Z,17.50
2018-11-06T19:11:56.639Z,14.23
2018-11-06T19:14:26.404Z,17.70
2018-11-06T19:16:57.325Z,15.48
2018-11-06T19:19:30.092Z,23.73
2018-11-06T19:21:59.198Z,20.90
2018-11-06T19:24:34.856Z,22.80
2018-11-06T19:27:04.340Z,18.62
2018-11-06T19:29:34.389Z,20.43
2018-11-06T19:32:03.427Z,22.07
2018-11-06T19:34:32.911Z,18.65
2018-11-06T19:37:03.026Z,20.55
2018-11-06T19:39:32.377Z,17.70
2018-11-06T19:42:01.607Z,20.77
2018-11-06T19:44:30.598Z,20.43
2018-11-06T19:46:59.477Z,20.20
2018-11-06T19:49:28.752Z,22.22
2018-11-06T19:51:57.702Z,20.10
2018-11-06T19:54:26.760Z,22.32
2018-11-06T19:56:55.765Z,18.48
2018-11-06T19:59:24.803Z,20.43
2018-11-06T20:01:54.056Z,23.22
2018-11-06T20:04:23.147Z,18.85
2018-11-06T20:06:52.233Z,19.45
2018-11-06T20:09:21.402Z,19.27
2018-11-06T20:11:50.374Z,21.45
2018-11-06T20:14:19.669Z,22.42
2018-11-06T20:16:48.620Z,18.27
2018-11-06T20:19:17.766Z,21.05
2018-11-06T20:21:46.814Z,19.90
2018-11-06T20:24:15.847Z,18.50
2018-11-06T20:26:44.726Z,22.13
2018-11-06T20:29:13.699Z,22.02
2018-11-06T20:31:42.647Z,17.70
2018-11-06T20:34:12.089Z,26.52
2018-11-06T20:36:41.002Z,16.90
2018-11-06T20:39:10.937Z,22.25
2018-11-06T20:41:39.942Z,21.27
2018-11-06T20:44:08.893Z,25.97
2018-11-06T20:46:37.922Z,18.37
2018-11-06T20:49:07.034Z,23.83
2018-11-06T20:51:36.322Z,20.40
2018-11-06T20:54:05.766Z,20.50
2018-11-06T20:56:34.912Z,19.80
2018-11-06T20:59:03.982Z,20.92
2018-11-06T21:01:32.906Z,23.40
2018-11-06T21:04:01.812Z,17.77
2018-11-06T21:06:30.950Z,23.32
2018-11-06T21:08:59.880Z,23.70
2018-11-06T21:11:28.940Z,19.23
2018-11-06T21:13:58.024Z,25.48
2018-11-06T21:16:27.157Z,24.82
2018-11-06T21:18:56.308Z,23.87
2018-11-06T21:21:25.298Z,23.50
2018-11-06T21:23:54.275Z,22.15
2018-11-06T21:26:23.822Z,19.35
2018-11-06T21:28:52.931Z,23.07
2018-11-06T21:31:22.246Z,24.18
2018-11-06T21:33:51.457Z,25.97
2018-11-06T21:36:20.471Z,17.55
2018-11-06T21:38:49.349Z,26.45
2018-11-06T21:41:18.239Z,20.52
2018-11-06T21:43:47.310Z,25.30
2018-11-06T21:46:16.255Z,21.68
2018-11-06T21:48:45.189Z,20.35
2018-11-06T21:51:14.156Z,20.52
2018-11-06T21:53:43.092Z,25.20
2018-11-06T21:56:12.005Z,21.57
2018-11-06T21:58:40.953Z,25.45
2018-11-06T22:01:09.927Z,23.10
2018-11-06T22:03:38.815Z,25.15
2018-11-06T22:06:07.734Z,24.98
2018-11-06T22:08:36.671Z,22.85
2018-11-06T22:11:05.734Z,19.65
2018-11-06T22:13:34.759Z,30.72
2018-11-06T22:16:03.706Z,22.07
2018-11-06T22:18:32.599Z,21.42
2018-11-06T22:21:01.510Z,22.42
2018-11-06T22:23:30.432Z,17.20
2018-11-06T22:25:59.326Z,23.18
2018-11-06T22:28:28.302Z,20.45
2018-11-06T22:30:57.243Z,17.23
2018-11-06T22:33:26.183Z,18.20
2018-11-06T22:35:55.076Z,19.70
2018-11-06T22:38:24.046Z,22.25
2018-11-06T22:40:53.186Z,18.73
2018-11-06T22:43:22.211Z,23.47
2018-11-06T22:45:51.154Z,22.02
2018-11-06T22:48:20.114Z,20.90
2018-11-06T22:50:49.017Z,23.47
2018-11-06T22:53:18.014Z,24.05
2018-11-06T22:55:46.870Z,25.92
2018-11-06T22:58:15.782Z,20.92
2018-11-06T23:00:49.871Z,25.20
2018-11-06T23:03:18.778Z,27.60
2018-11-06T23:05:47.815Z,24.85
2018-11-06T23:08:25.547Z,20.15
2018-11-06T23:10:54.739Z,24.25
2018-11-06T23:13:23.793Z,21.30
2018-11-06T23:15:53.018Z,25.88
2018-11-06T23:18:22.090Z,22.67
2018-11-06T23:20:51.018Z,26.17
2018-11-06T23:23:19.902Z,23.95
2018-11-06T23:25:48.794Z,25.72
2018-11-06T23:28:17.680Z,28.42
2018-11-06T23:30:46.568Z,27.40
2018-11-06T23:33:15.471Z,23.25
2018-11-06T23:35:44.412Z,23.18
2018-11-06T23:38:13.311Z,26.90
2018-11-06T23:40:42.361Z,23.60
2018-11-06T23:43:12.273Z,23.98
2018-11-06T23:45:41.352Z,24.18
2018-11-06T23:48:10.230Z,26.35
2018-11-06T23:50:39.197Z,26.10
2018-11-06T23:53:08.103Z,22.25
2018-11-06T23:55:37.075Z,21.70
2018-11-06T23:58:05.966Z,22.02
